sensor_id;sensor_type;location;lat;lon;timestamp;pressure;altitude;pressure_sealevel;temperature;humidity
3464;BME280;3551;41.578;24.706;2023-03-31T09:11:49;90834.72;;;15.34;45.31
3464;BME280;3551;41.578;24.706;2023-03-31T09:14:20;90830.00;;;15.38;44.64
3464;BME280;3551;41.578;24.706;2023-03-31T09:26:43;90832.28;;;15.64;44.81
3464;BME280;3551;41.578;24.706;2023-03-31T09:29:12;90831.34;;;15.58;44.36
3464;BME280;3551;41.578;24.706;2023-03-31T09:31:43;90831.78;;;15.69;44.24
3464;BME280;3551;41.578;24.706;2023-03-31T09:34:12;90828.50;;;15.62;44.37
3464;BME280;3551;41.578;24.706;2023-03-31T09:36:40;90822.63;;;15.38;45.16
3464;BME280;3551;41.578;24.706;2023-03-31T09:41:54;90814.25;;;15.36;44.59
3464;BME280;3551;41.578;24.706;2023-03-31T09:55:21;90822.75;;;15.35;46.19
3464;BME280;3551;41.578;24.706;2023-03-31T10:00:57;90820.66;;;15.67;45.47
3464;BME280;3551;41.578;24.706;2023-03-31T10:03:24;90834.41;;;15.44;46.09
3464;BME280;3551;41.578;24.706;2023-03-31T10:05:54;90817.81;;;15.46;45.83
3464;BME280;3551;41.578;24.706;2023-03-31T10:08:24;90811.81;;;15.54;45.81
3464;BME280;3551;41.578;24.706;2023-03-31T10:10:52;90799.19;;;15.76;45.49
3464;BME280;3551;41.578;24.706;2023-03-31T10:13:22;90798.53;;;15.98;44.37
3464;BME280;3551;41.578;24.706;2023-03-31T10:15:51;90803.50;;;15.74;45.36
3464;BME280;3551;41.578;24.706;2023-03-31T10:18:19;90804.47;;;15.67;45.40
3464;BME280;3551;41.578;24.706;2023-03-31T10:20:48;90797.16;;;15.81;45.24
3464;BME280;3551;41.578;24.706;2023-03-31T10:23:15;90790.22;;;16.05;44.31
3464;BME280;3551;41.578;24.706;2023-03-31T10:25:43;90792.91;;;16.05;44.88
3464;BME280;3551;41.578;24.706;2023-03-31T10:28:11;90788.59;;;15.95;45.64
3464;BME280;3551;41.578;24.706;2023-03-31T10:30:41;90779.25;;;15.87;43.95
3464;BME280;3551;41.578;24.706;2023-03-31T10:58:11;90743.88;;;15.34;46.64
3464;BME280;3551;41.578;24.706;2023-03-31T11:00:48;90737.19;;;15.39;46.33
3464;BME280;3551;41.578;24.706;2023-03-31T11:03:24;90729.31;;;15.32;46.15
3464;BME280;3551;41.578;24.706;2023-03-31T11:05:56;90729.94;;;15.36;46.46
3464;BME280;3551;41.578;24.706;2023-03-31T11:13:45;90730.50;;;15.31;46.52
3464;BME280;3551;41.578;24.706;2023-03-31T11:16:16;90720.91;;;15.42;46.82
3464;BME280;3551;41.578;24.706;2023-03-31T11:18:49;90722.75;;;15.45;47.19
3464;BME280;3551;41.578;24.706;2023-03-31T11:24:23;90718.53;;;15.44;46.95
3464;BME280;3551;41.578;24.706;2023-03-31T11:26:53;90707.97;;;15.37;46.69
3464;BME280;3551;41.578;24.706;2023-03-31T11:29:31;90699.91;;;15.62;45.68
3464;BME280;3551;41.578;24.706;2023-03-31T11:32:06;90699.25;;;16.05;45.41
3464;BME280;3551;41.578;24.706;2023-03-31T11:37:53;90691.72;;;16.00;45.15
3464;BME280;3551;41.578;24.706;2023-03-31T11:40:38;90698.53;;;15.92;45.27
3464;BME280;3551;41.578;24.706;2023-03-31T11:43:10;90683.72;;;16.09;45.30
3464;BME280;3551;41.578;24.706;2023-03-31T11:45:42;90692.09;;;16.11;45.39
3464;BME280;3551;41.578;24.706;2023-03-31T11:56:46;90676.72;;;15.40;46.89
3464;BME280;3551;41.578;24.706;2023-03-31T12:04:33;90665.50;;;16.01;44.41
3464;BME280;3551;41.578;24.706;2023-03-31T12:07:04;90670.03;;;15.69;45.87
3464;BME280;3551;41.578;24.706;2023-03-31T12:09:42;90666.69;;;15.53;46.01
3464;BME280;3551;41.578;24.706;2023-03-31T12:12:14;90656.34;;;15.64;45.28
3464;BME280;3551;41.578;24.706;2023-03-31T12:14:44;90653.88;;;15.57;45.62
3464;BME280;3551;41.578;24.706;2023-03-31T12:17:16;90662.84;;;15.29;46.67
3464;BME280;3551;41.578;24.706;2023-03-31T12:19:46;90660.91;;;15.16;46.28
3464;BME280;3551;41.578;24.706;2023-03-31T12:22:15;90656.06;;;15.11;47.52
3464;BME280;3551;41.578;24.706;2023-03-31T12:27:35;90652.78;;;15.42;45.59
3464;BME280;3551;41.578;24.706;2023-03-31T12:30:08;90664.13;;;15.49;45.55
3464;BME280;3551;41.578;24.706;2023-03-31T12:32:37;90656.34;;;15.39;45.91
3464;BME280;3551;41.578;24.706;2023-03-31T12:35:12;90666.06;;;15.49;46.22
3464;BME280;3551;41.578;24.706;2023-03-31T12:37:52;90667.25;;;15.48;45.46
3464;BME280;3551;41.578;24.706;2023-03-31T12:40:24;90668.94;;;15.42;44.62
3464;BME280;3551;41.578;24.706;2023-03-31T12:42:58;90664.88;;;15.25;46.87
3464;BME280;3551;41.578;24.706;2023-03-31T12:45:30;90668.44;;;14.84;48.29
3464;BME280;3551;41.578;24.706;2023-03-31T12:53:30;90672.31;;;15.08;47.98
